RJNK(METAR)
07/17 15:00
METAR RJNK 170600Z 35009KT 9999 FEW020 27/21 Q1012 RMK 2CU020 A2990=
戻る
トップページへ戻る
IMOC Co,.Ltd.